sensor_id;sensor_type;location;lat;lon;timestamp;P1;durP1;ratioP1;P2;durP2;ratioP2
55915;SDS011;41826;53.246;-6.670;2022-12-18T00:01:59;6.97;;;3.17;;
55915;SDS011;41826;53.246;-6.670;2022-12-18T00:04:25;9.60;;;3.30;;
55915;SDS011;41826;53.246;-6.670;2022-12-18T00:06:52;5.80;;;2.30;;
55915;SDS011;41826;53.246;-6.670;2022-12-18T00:09:18;4.35;;;2.10;;
55915;SDS011;41826;53.246;-6.670;2022-12-18T00:11:44;4.60;;;2.38;;
55915;SDS011;41826;53.246;-6.670;2022-12-18T00:14:11;2.60;;;2.08;;
55915;SDS011;41826;53.246;-6.670;2022-12-18T00:16:38;5.13;;;2.38;;
55915;SDS011;41826;53.246;-6.670;2022-12-18T00:19:05;6.88;;;2.55;;
55915;SDS011;41826;53.246;-6.670;2022-12-18T00:21:32;2.97;;;2.38;;
55915;SDS011;41826;53.246;-6.670;2022-12-18T00:23:58;5.65;;;2.67;;
55915;SDS011;41826;53.246;-6.670;2022-12-18T00:26:31;6.70;;;2.78;;
55915;SDS011;41826;53.246;-6.670;2022-12-18T00:28:59;5.03;;;2.65;;
55915;SDS011;41826;53.246;-6.670;2022-12-18T00:31:27;3.78;;;1.90;;
55915;SDS011;41826;53.246;-6.670;2022-12-18T00:33:55;4.05;;;1.30;;
55915;SDS011;41826;53.246;-6.670;2022-12-18T00:36:34;4.30;;;1.97;;
55915;SDS011;41826;53.246;-6.670;2022-12-18T00:39:00;5.28;;;1.67;;
55915;SDS011;41826;53.246;-6.670;2022-12-18T00:41:28;4.97;;;1.55;;
55915;SDS011;41826;53.246;-6.670;2022-12-18T00:44:12;2.25;;;1.30;;
55915;SDS011;41826;53.246;-6.670;2022-12-18T00:46:41;6.07;;;1.30;;
55915;SDS011;41826;53.246;-6.670;2022-12-18T00:49:07;3.55;;;1.48;;
55915;SDS011;41826;53.246;-6.670;2022-12-18T00:51:33;4.20;;;1.10;;
55915;SDS011;41826;53.246;-6.670;2022-12-18T00:53:58;2.05;;;0.90;;
55915;SDS011;41826;53.246;-6.670;2022-12-18T00:56:25;2.38;;;1.23;;
55915;SDS011;41826;53.246;-6.670;2022-12-18T00:58:51;1.63;;;1.05;;
55915;SDS011;41826;53.246;-6.670;2022-12-18T01:01:16;4.70;;;1.85;;
55915;SDS011;41826;53.246;-6.670;2022-12-18T01:03:42;2.42;;;1.60;;
55915;SDS011;41826;53.246;-6.670;2022-12-18T01:06:08;8.40;;;1.42;;
55915;SDS011;41826;53.246;-6.670;2022-12-18T01:08:37;2.88;;;1.35;;
55915;SDS011;41826;53.246;-6.670;2022-12-18T01:11:07;3.65;;;1.80;;
55915;SDS011;41826;53.246;-6.670;2022-12-18T01:13:34;2.97;;;1.23;;
55915;SDS011;41826;53.246;-6.670;2022-12-18T01:16:00;4.35;;;1.83;;
55915;SDS011;41826;53.246;-6.670;2022-12-18T01:18:25;7.95;;;1.60;;
55915;SDS011;41826;53.246;-6.670;2022-12-18T01:20:51;3.15;;;1.70;;
55915;SDS011;41826;53.246;-6.670;2022-12-18T01:23:19;3.28;;;1.73;;
55915;SDS011;41826;53.246;-6.670;2022-12-18T01:25:44;2.53;;;1.52;;
55915;SDS011;41826;53.246;-6.670;2022-12-18T01:28:09;6.78;;;1.67;;
55915;SDS011;41826;53.246;-6.670;2022-12-18T01:30:36;2.17;;;1.50;;
55915;SDS011;41826;53.246;-6.670;2022-12-18T01:33:04;4.57;;;1.63;;
55915;SDS011;41826;53.246;-6.670;2022-12-18T01:35:31;2.80;;;1.08;;
55915;SDS011;41826;53.246;-6.670;2022-12-18T01:37:56;1.60;;;1.50;;
55915;SDS011;41826;53.246;-6.670;2022-12-18T01:40:22;1.80;;;1.20;;
55915;SDS011;41826;53.246;-6.670;2022-12-18T01:42:52;4.22;;;1.38;;
55915;SDS011;41826;53.246;-6.670;2022-12-18T01:52:48;1.75;;;1.30;;
55915;SDS011;41826;53.246;-6.670;2022-12-18T01:55:18;4.13;;;1.42;;
55915;SDS011;41826;53.246;-6.670;2022-12-18T01:57:45;2.83;;;1.15;;
55915;SDS011;41826;53.246;-6.670;2022-12-18T02:00:14;2.65;;;2.05;;
55915;SDS011;41826;53.246;-6.670;2022-12-18T02:02:47;3.90;;;1.58;;
55915;SDS011;41826;53.246;-6.670;2022-12-18T02:05:15;2.63;;;1.70;;
55915;SDS011;41826;53.246;-6.670;2022-12-18T02:10:41;4.18;;;1.85;;
55915;SDS011;41826;53.246;-6.670;2022-12-18T02:18:33;6.63;;;1.70;;
55915;SDS011;41826;53.246;-6.670;2022-12-18T02:21:19;2.45;;;1.20;;
55915;SDS011;41826;53.246;-6.670;2022-12-18T02:23:57;8.13;;;1.60;;
55915;SDS011;41826;53.246;-6.670;2022-12-18T02:29:06;5.68;;;1.27;;
55915;SDS011;41826;53.246;-6.670;2022-12-18T02:31:36;3.13;;;1.02;;
55915;SDS011;41826;53.246;-6.670;2022-12-18T02:34:07;4.22;;;1.20;;
55915;SDS011;41826;53.246;-6.670;2022-12-18T02:36:36;3.65;;;1.15;;
55915;SDS011;41826;53.246;-6.670;2022-12-18T02:39:05;12.45;;;2.65;;
55915;SDS011;41826;53.246;-6.670;2022-12-18T02:41:34;6.78;;;1.25;;
55915;SDS011;41826;53.246;-6.670;2022-12-18T02:44:01;6.28;;;1.20;;
55915;SDS011;41826;53.246;-6.670;2022-12-18T02:46:35;4.88;;;1.25;;
55915;SDS011;41826;53.246;-6.670;2022-12-18T02:55:18;6.50;;;1.30;;
55915;SDS011;41826;53.246;-6.670;2022-12-18T03:00:57;7.10;;;1.10;;
55915;SDS011;41826;53.246;-6.670;2022-12-18T03:03:26;2.25;;;0.95;;
55915;SDS011;41826;53.246;-6.670;2022-12-18T03:06:05;6.65;;;1.08;;
55915;SDS011;41826;53.246;-6.670;2022-12-18T03:08:42;4.72;;;1.08;;
55915;SDS011;41826;53.246;-6.670;2022-12-18T03:11:13;2.70;;;0.90;;
55915;SDS011;41826;53.246;-6.670;2022-12-18T03:13:45;2.78;;;1.20;;
55915;SDS011;41826;53.246;-6.670;2022-12-18T03:16:17;7.18;;;1.90;;
55915;SDS011;41826;53.246;-6.670;2022-12-18T03:18:51;2.22;;;1.05;;
55915;SDS011;41826;53.246;-6.670;2022-12-18T03:21:26;2.80;;;1.00;;
55915;SDS011;41826;53.246;-6.670;2022-12-18T03:24:04;3.92;;;0.98;;
55915;SDS011;41826;53.246;-6.670;2022-12-18T03:26:35;13.45;;;2.08;;
55915;SDS011;41826;53.246;-6.670;2022-12-18T03:29:08;8.10;;;1.27;;
55915;SDS011;41826;53.246;-6.670;2022-12-18T03:31:39;6.97;;;1.40;;
55915;SDS011;41826;53.246;-6.670;2022-12-18T03:34:09;2.00;;;1.45;;
55915;SDS011;41826;53.246;-6.670;2022-12-18T03:36:39;2.60;;;1.08;;
55915;SDS011;41826;53.246;-6.670;2022-12-18T03:39:06;5.70;;;1.02;;
55915;SDS011;41826;53.246;-6.670;2022-12-18T03:41:32;6.25;;;1.15;;
55915;SDS011;41826;53.246;-6.670;2022-12-18T03:52:49;2.67;;;1.20;;
55915;SDS011;41826;53.246;-6.670;2022-12-18T03:55:22;13.77;;;1.35;;
55915;SDS011;41826;53.246;-6.670;2022-12-18T03:57:49;3.25;;;1.50;;
55915;SDS011;41826;53.246;-6.670;2022-12-18T04:00:17;3.53;;;1.35;;
55915;SDS011;41826;53.246;-6.670;2022-12-18T04:02:45;7.15;;;1.88;;
55915;SDS011;41826;53.246;-6.670;2022-12-18T04:05:16;6.53;;;2.13;;
55915;SDS011;41826;53.246;-6.670;2022-12-18T04:07:45;2.70;;;1.33;;
55915;SDS011;41826;53.246;-6.670;2022-12-18T04:10:12;5.47;;;1.60;;
55915;SDS011;41826;53.246;-6.670;2022-12-18T04:12:40;10.05;;;2.35;;
55915;SDS011;41826;53.246;-6.670;2022-12-18T04:15:05;6.65;;;1.42;;
55915;SDS011;41826;53.246;-6.670;2022-12-18T04:17:32;4.38;;;1.27;;
55915;SDS011;41826;53.246;-6.670;2022-12-18T04:19:57;2.92;;;1.48;;
55915;SDS011;41826;53.246;-6.670;2022-12-18T04:22:23;5.07;;;1.45;;
55915;SDS011;41826;53.246;-6.670;2022-12-18T04:24:48;3.08;;;1.58;;
55915;SDS011;41826;53.246;-6.670;2022-12-18T04:27:14;10.98;;;1.70;;
55915;SDS011;41826;53.246;-6.670;2022-12-18T04:29:39;4.50;;;1.77;;
55915;SDS011;41826;53.246;-6.670;2022-12-18T04:32:04;6.45;;;1.83;;
55915;SDS011;41826;53.246;-6.670;2022-12-18T04:34:30;6.63;;;1.75;;
55915;SDS011;41826;53.246;-6.670;2022-12-18T04:36:55;3.75;;;1.50;;
55915;SDS011;41826;53.246;-6.670;2022-12-18T04:39:21;4.90;;;1.80;;
55915;SDS011;41826;53.246;-6.670;2022-12-18T04:41:47;5.70;;;1.40;;
55915;SDS011;41826;53.246;-6.670;2022-12-18T04:44:12;2.05;;;1.38;;
55915;SDS011;41826;53.246;-6.670;2022-12-18T04:46:40;8.20;;;1.50;;
55915;SDS011;41826;53.246;-6.670;2022-12-18T04:49:05;1.67;;;1.23;;
55915;SDS011;41826;53.246;-6.670;2022-12-18T04:51:31;3.55;;;1.42;;
55915;SDS011;41826;53.246;-6.670;2022-12-18T04:53:56;10.43;;;1.35;;
55915;SDS011;41826;53.246;-6.670;2022-12-18T04:56:23;3.40;;;1.35;;
55915;SDS011;41826;53.246;-6.670;2022-12-18T04:58:49;9.45;;;1.85;;
55915;SDS011;41826;53.246;-6.670;2022-12-18T05:01:14;8.65;;;1.42;;
55915;SDS011;41826;53.246;-6.670;2022-12-18T05:03:41;4.25;;;1.15;;
55915;SDS011;41826;53.246;-6.670;2022-12-18T05:06:07;5.70;;;1.08;;
55915;SDS011;41826;53.246;-6.670;2022-12-18T05:08:33;2.25;;;1.20;;
55915;SDS011;41826;53.246;-6.670;2022-12-18T05:10:59;4.75;;;1.38;;
55915;SDS011;41826;53.246;-6.670;2022-12-18T05:13:29;8.80;;;1.35;;
55915;SDS011;41826;53.246;-6.670;2022-12-18T05:15:55;4.40;;;1.30;;
55915;SDS011;41826;53.246;-6.670;2022-12-18T05:18:21;8.88;;;1.23;;
55915;SDS011;41826;53.246;-6.670;2022-12-18T05:20:52;8.77;;;1.48;;
55915;SDS011;41826;53.246;-6.670;2022-12-18T05:23:20;3.65;;;1.65;;
55915;SDS011;41826;53.246;-6.670;2022-12-18T05:28:22;2.63;;;1.30;;
55915;SDS011;41826;53.246;-6.670;2022-12-18T05:30:50;4.13;;;1.27;;
55915;SDS011;41826;53.246;-6.670;2022-12-18T05:33:16;5.85;;;1.58;;
55915;SDS011;41826;53.246;-6.670;2022-12-18T05:35:43;5.57;;;1.58;;
55915;SDS011;41826;53.246;-6.670;2022-12-18T05:38:09;6.10;;;1.20;;
55915;SDS011;41826;53.246;-6.670;2022-12-18T05:40:35;8.30;;;1.10;;
55915;SDS011;41826;53.246;-6.670;2022-12-18T05:43:01;7.82;;;2.35;;
55915;SDS011;41826;53.246;-6.670;2022-12-18T05:45:27;5.47;;;1.40;;
55915;SDS011;41826;53.246;-6.670;2022-12-18T05:47:52;8.52;;;1.05;;
55915;SDS011;41826;53.246;-6.670;2022-12-18T05:50:19;3.42;;;1.02;;
55915;SDS011;41826;53.246;-6.670;2022-12-18T05:52:44;3.92;;;0.95;;
55915;SDS011;41826;53.246;-6.670;2022-12-18T05:55:10;1.88;;;0.95;;
55915;SDS011;41826;53.246;-6.670;2022-12-18T05:57:35;4.57;;;1.33;;
55915;SDS011;41826;53.246;-6.670;2022-12-18T06:00:02;4.32;;;1.40;;
55915;SDS011;41826;53.246;-6.670;2022-12-18T06:02:28;4.40;;;1.23;;
55915;SDS011;41826;53.246;-6.670;2022-12-18T06:04:54;3.10;;;1.42;;
55915;SDS011;41826;53.246;-6.670;2022-12-18T06:07:19;1.63;;;0.98;;
55915;SDS011;41826;53.246;-6.670;2022-12-18T06:09:44;6.65;;;1.77;;
55915;SDS011;41826;53.246;-6.670;2022-12-18T06:12:10;5.00;;;1.73;;
55915;SDS011;41826;53.246;-6.670;2022-12-18T06:14:35;5.55;;;1.48;;
55915;SDS011;41826;53.246;-6.670;2022-12-18T06:17:01;2.85;;;0.98;;
55915;SDS011;41826;53.246;-6.670;2022-12-18T06:19:28;6.07;;;1.48;;
55915;SDS011;41826;53.246;-6.670;2022-12-18T06:21:54;7.70;;;1.38;;
55915;SDS011;41826;53.246;-6.670;2022-12-18T06:24:19;3.15;;;1.23;;
55915;SDS011;41826;53.246;-6.670;2022-12-18T06:26:45;6.55;;;1.50;;
55915;SDS011;41826;53.246;-6.670;2022-12-18T06:29:12;4.15;;;1.30;;
55915;SDS011;41826;53.246;-6.670;2022-12-18T06:31:38;3.17;;;1.33;;
55915;SDS011;41826;53.246;-6.670;2022-12-18T06:34:05;5.53;;;1.30;;
55915;SDS011;41826;53.246;-6.670;2022-12-18T06:36:30;3.10;;;1.27;;
55915;SDS011;41826;53.246;-6.670;2022-12-18T06:38:56;2.92;;;1.50;;
55915;SDS011;41826;53.246;-6.670;2022-12-18T06:41:22;6.40;;;1.85;;
55915;SDS011;41826;53.246;-6.670;2022-12-18T06:43:47;3.95;;;1.35;;
55915;SDS011;41826;53.246;-6.670;2022-12-18T06:46:13;5.13;;;2.55;;
55915;SDS011;41826;53.246;-6.670;2022-12-18T06:48:38;6.97;;;1.50;;
55915;SDS011;41826;53.246;-6.670;2022-12-18T06:51:04;4.75;;;1.55;;
55915;SDS011;41826;53.246;-6.670;2022-12-18T06:53:30;3.22;;;1.45;;
55915;SDS011;41826;53.246;-6.670;2022-12-18T06:56:04;5.45;;;1.63;;
55915;SDS011;41826;53.246;-6.670;2022-12-18T06:58:31;3.55;;;1.63;;
55915;SDS011;41826;53.246;-6.670;2022-12-18T07:01:00;2.22;;;1.38;;
55915;SDS011;41826;53.246;-6.670;2022-12-18T07:03:26;3.53;;;1.38;;
55915;SDS011;41826;53.246;-6.670;2022-12-18T07:05:52;6.53;;;1.33;;
55915;SDS011;41826;53.246;-6.670;2022-12-18T07:08:17;1.38;;;1.27;;
55915;SDS011;41826;53.246;-6.670;2022-12-18T07:10:44;5.40;;;1.65;;
55915;SDS011;41826;53.246;-6.670;2022-12-18T07:13:09;4.47;;;1.90;;
55915;SDS011;41826;53.246;-6.670;2022-12-18T07:15:35;2.63;;;1.70;;
55915;SDS011;41826;53.246;-6.670;2022-12-18T07:18:01;7.30;;;1.80;;
55915;SDS011;41826;53.246;-6.670;2022-12-18T07:20:28;2.95;;;1.65;;
55915;SDS011;41826;53.246;-6.670;2022-12-18T07:22:54;4.53;;;1.60;;
55915;SDS011;41826;53.246;-6.670;2022-12-18T07:25:19;4.55;;;1.92;;
55915;SDS011;41826;53.246;-6.670;2022-12-18T07:27:46;2.45;;;1.70;;
55915;SDS011;41826;53.246;-6.670;2022-12-18T07:30:11;5.80;;;2.50;;
55915;SDS011;41826;53.246;-6.670;2022-12-18T07:32:37;8.48;;;2.25;;
55915;SDS011;41826;53.246;-6.670;2022-12-18T07:35:02;7.68;;;2.10;;
55915;SDS011;41826;53.246;-6.670;2022-12-18T07:37:28;7.45;;;2.13;;
55915;SDS011;41826;53.246;-6.670;2022-12-18T07:39:55;6.13;;;2.40;;
55915;SDS011;41826;53.246;-6.670;2022-12-18T07:42:20;8.43;;;2.70;;
55915;SDS011;41826;53.246;-6.670;2022-12-18T07:44:59;3.55;;;2.30;;
55915;SDS011;41826;53.246;-6.670;2022-12-18T07:47:25;3.28;;;2.05;;
55915;SDS011;41826;53.246;-6.670;2022-12-18T07:49:52;7.85;;;2.60;;
55915;SDS011;41826;53.246;-6.670;2022-12-18T07:52:18;3.60;;;2.20;;
55915;SDS011;41826;53.246;-6.670;2022-12-18T07:54:43;7.35;;;2.22;;
55915;SDS011;41826;53.246;-6.670;2022-12-18T07:57:09;5.00;;;2.10;;
55915;SDS011;41826;53.246;-6.670;2022-12-18T07:59:34;2.80;;;1.77;;
55915;SDS011;41826;53.246;-6.670;2022-12-18T08:02:00;4.10;;;1.95;;
55915;SDS011;41826;53.246;-6.670;2022-12-18T08:04:25;5.38;;;2.15;;
55915;SDS011;41826;53.246;-6.670;2022-12-18T08:06:52;2.28;;;1.75;;
55915;SDS011;41826;53.246;-6.670;2022-12-18T08:09:18;4.25;;;2.15;;
55915;SDS011;41826;53.246;-6.670;2022-12-18T08:11:43;2.88;;;1.60;;
55915;SDS011;41826;53.246;-6.670;2022-12-18T08:14:10;4.03;;;2.10;;
55915;SDS011;41826;53.246;-6.670;2022-12-18T08:16:37;4.70;;;2.33;;
55915;SDS011;41826;53.246;-6.670;2022-12-18T08:19:02;4.35;;;2.78;;
55915;SDS011;41826;53.246;-6.670;2022-12-18T08:21:30;4.18;;;2.38;;
55915;SDS011;41826;53.246;-6.670;2022-12-18T08:23:57;8.10;;;2.65;;
55915;SDS011;41826;53.246;-6.670;2022-12-18T08:26:25;4.30;;;2.90;;
55915;SDS011;41826;53.246;-6.670;2022-12-18T08:28:53;4.57;;;2.58;;
55915;SDS011;41826;53.246;-6.670;2022-12-18T08:31:23;5.78;;;3.00;;
55915;SDS011;41826;53.246;-6.670;2022-12-18T08:33:50;6.32;;;2.85;;
55915;SDS011;41826;53.246;-6.670;2022-12-18T08:36:17;9.02;;;2.75;;
55915;SDS011;41826;53.246;-6.670;2022-12-18T08:38:44;5.05;;;3.40;;
55915;SDS011;41826;53.246;-6.670;2022-12-18T08:41:10;7.43;;;2.92;;
55915;SDS011;41826;53.246;-6.670;2022-12-18T08:43:37;11.00;;;3.47;;
55915;SDS011;41826;53.246;-6.670;2022-12-18T08:46:21;9.05;;;3.00;;
55915;SDS011;41826;53.246;-6.670;2022-12-18T08:48:50;9.15;;;3.15;;
55915;SDS011;41826;53.246;-6.670;2022-12-18T08:51:17;5.18;;;3.10;;
55915;SDS011;41826;53.246;-6.670;2022-12-18T08:53:43;4.45;;;2.63;;
55915;SDS011;41826;53.246;-6.670;2022-12-18T08:56:10;4.22;;;2.70;;
55915;SDS011;41826;53.246;-6.670;2022-12-18T08:58:38;4.18;;;3.10;;
55915;SDS011;41826;53.246;-6.670;2022-12-18T09:01:04;3.67;;;2.90;;
55915;SDS011;41826;53.246;-6.670;2022-12-18T09:03:31;4.43;;;2.95;;
55915;SDS011;41826;53.246;-6.670;2022-12-18T09:05:59;5.70;;;2.85;;
55915;SDS011;41826;53.246;-6.670;2022-12-18T09:08:25;9.02;;;3.17;;
55915;SDS011;41826;53.246;-6.670;2022-12-18T09:10:51;6.57;;;3.10;;
55915;SDS011;41826;53.246;-6.670;2022-12-18T09:13:17;6.72;;;3.08;;
55915;SDS011;41826;53.246;-6.670;2022-12-18T09:15:44;3.90;;;2.22;;
55915;SDS011;41826;53.246;-6.670;2022-12-18T09:18:14;5.93;;;2.75;;
55915;SDS011;41826;53.246;-6.670;2022-12-18T09:20:41;4.40;;;2.38;;
55915;SDS011;41826;53.246;-6.670;2022-12-18T09:23:06;9.32;;;3.15;;
55915;SDS011;41826;53.246;-6.670;2022-12-18T09:25:33;5.07;;;2.65;;
55915;SDS011;41826;53.246;-6.670;2022-12-18T09:28:01;3.15;;;2.45;;
55915;SDS011;41826;53.246;-6.670;2022-12-18T09:30:27;3.72;;;2.25;;
55915;SDS011;41826;53.246;-6.670;2022-12-18T09:32:53;4.28;;;2.30;;
55915;SDS011;41826;53.246;-6.670;2022-12-18T09:35:18;3.08;;;2.20;;
55915;SDS011;41826;53.246;-6.670;2022-12-18T09:37:44;2.05;;;1.75;;
55915;SDS011;41826;53.246;-6.670;2022-12-18T09:40:19;3.30;;;1.73;;
55915;SDS011;41826;53.246;-6.670;2022-12-18T09:42:59;1.88;;;1.30;;
55915;SDS011;41826;53.246;-6.670;2022-12-18T09:45:29;1.88;;;1.45;;
55915;SDS011;41826;53.246;-6.670;2022-12-18T09:48:05;5.45;;;1.60;;
55915;SDS011;41826;53.246;-6.670;2022-12-18T09:50:40;3.45;;;1.40;;
55915;SDS011;41826;53.246;-6.670;2022-12-18T09:53:12;1.42;;;1.15;;
55915;SDS011;41826;53.246;-6.670;2022-12-18T09:55:45;3.00;;;2.10;;
55915;SDS011;41826;53.246;-6.670;2022-12-18T10:00:41;1.23;;;1.02;;
55915;SDS011;41826;53.246;-6.670;2022-12-18T10:03:11;3.17;;;1.50;;
55915;SDS011;41826;53.246;-6.670;2022-12-18T10:14:35;1.10;;;0.98;;
55915;SDS011;41826;53.246;-6.670;2022-12-18T10:19:37;3.55;;;1.05;;
55915;SDS011;41826;53.246;-6.670;2022-12-18T10:22:33;3.42;;;0.90;;
55915;SDS011;41826;53.246;-6.670;2022-12-18T10:25:09;1.45;;;0.98;;
55915;SDS011;41826;53.246;-6.670;2022-12-18T10:27:56;0.93;;;0.63;;
55915;SDS011;41826;53.246;-6.670;2022-12-18T10:30:27;0.82;;;0.82;;
55915;SDS011;41826;53.246;-6.670;2022-12-18T10:32:52;2.08;;;0.82;;
55915;SDS011;41826;53.246;-6.670;2022-12-18T10:35:25;0.93;;;0.50;;
55915;SDS011;41826;53.246;-6.670;2022-12-18T10:43:25;1.95;;;0.73;;
55915;SDS011;41826;53.246;-6.670;2022-12-18T10:51:16;2.42;;;0.85;;
55915;SDS011;41826;53.246;-6.670;2022-12-18T10:53:57;1.48;;;0.63;;
55915;SDS011;41826;53.246;-6.670;2022-12-18T10:56:27;0.90;;;0.73;;
55915;SDS011;41826;53.246;-6.670;2022-12-18T10:59:08;1.52;;;0.63;;
55915;SDS011;41826;53.246;-6.670;2022-12-18T11:01:47;2.63;;;0.70;;
55915;SDS011;41826;53.246;-6.670;2022-12-18T11:04:23;1.00;;;0.60;;
55915;SDS011;41826;53.246;-6.670;2022-12-18T11:07:01;0.57;;;0.57;;
55915;SDS011;41826;53.246;-6.670;2022-12-18T11:09:32;1.90;;;0.73;;
55915;SDS011;41826;53.246;-6.670;2022-12-18T11:12:00;2.03;;;0.80;;
55915;SDS011;41826;53.246;-6.670;2022-12-18T11:15:02;1.00;;;0.75;;
55915;SDS011;41826;53.246;-6.670;2022-12-18T11:17:30;3.90;;;0.77;;
55915;SDS011;41826;53.246;-6.670;2022-12-18T11:23:01;2.13;;;0.88;;
55915;SDS011;41826;53.246;-6.670;2022-12-18T11:25:29;2.40;;;0.60;;
55915;SDS011;41826;53.246;-6.670;2022-12-18T11:28:01;1.13;;;0.57;;
55915;SDS011;41826;53.246;-6.670;2022-12-18T11:30:36;0.90;;;0.50;;
55915;SDS011;41826;53.246;-6.670;2022-12-18T11:33:20;1.70;;;0.60;;
55915;SDS011;41826;53.246;-6.670;2022-12-18T11:35:55;2.42;;;0.73;;
55915;SDS011;41826;53.246;-6.670;2022-12-18T11:38:39;0.60;;;0.50;;
55915;SDS011;41826;53.246;-6.670;2022-12-18T11:41:28;0.85;;;0.50;;
55915;SDS011;41826;53.246;-6.670;2022-12-18T11:44:28;0.70;;;0.32;;
55915;SDS011;41826;53.246;-6.670;2022-12-18T11:47:03;0.50;;;0.50;;
55915;SDS011;41826;53.246;-6.670;2022-12-18T11:49:41;0.93;;;0.50;;
55915;SDS011;41826;53.246;-6.670;2022-12-18T11:54:51;0.40;;;0.40;;
55915;SDS011;41826;53.246;-6.670;2022-12-18T12:00:00;0.40;;;0.40;;
55915;SDS011;41826;53.246;-6.670;2022-12-18T12:24:59;1.33;;;1.15;;
55915;SDS011;41826;53.246;-6.670;2022-12-18T12:28:19;1.33;;;1.00;;
55915;SDS011;41826;53.246;-6.670;2022-12-18T12:39:26;1.38;;;0.40;;
55915;SDS011;41826;53.246;-6.670;2022-12-18T12:42:01;1.65;;;0.70;;
55915;SDS011;41826;53.246;-6.670;2022-12-18T12:44:48;0.93;;;0.68;;
55915;SDS011;41826;53.246;-6.670;2022-12-18T12:47:40;0.82;;;0.50;;
55915;SDS011;41826;53.246;-6.670;2022-12-18T12:50:11;1.15;;;0.88;;
55915;SDS011;41826;53.246;-6.670;2022-12-18T12:55:17;4.13;;;0.82;;
55915;SDS011;41826;53.246;-6.670;2022-12-18T12:58:35;1.98;;;1.05;;
55915;SDS011;41826;53.246;-6.670;2022-12-18T13:00:40;3.65;;;0.82;;
55915;SDS011;41826;53.246;-6.670;2022-12-18T13:03:27;0.88;;;0.70;;
55915;SDS011;41826;53.246;-6.670;2022-12-18T13:06:00;1.38;;;0.90;;
55915;SDS011;41826;53.246;-6.670;2022-12-18T13:08:51;1.63;;;1.17;;
55915;SDS011;41826;53.246;-6.670;2022-12-18T13:11:30;1.30;;;0.95;;
55915;SDS011;41826;53.246;-6.670;2022-12-18T13:14:26;1.25;;;0.90;;
55915;SDS011;41826;53.246;-6.670;2022-12-18T13:22:37;3.25;;;1.20;;
55915;SDS011;41826;53.246;-6.670;2022-12-18T13:38:24;1.85;;;0.95;;
55915;SDS011;41826;53.246;-6.670;2022-12-18T13:43:46;1.20;;;1.08;;
55915;SDS011;41826;53.246;-6.670;2022-12-18T13:51:39;1.15;;;1.00;;
55915;SDS011;41826;53.246;-6.670;2022-12-18T13:54:19;1.45;;;1.00;;
55915;SDS011;41826;53.246;-6.670;2022-12-18T13:56:46;0.82;;;0.82;;
55915;SDS011;41826;53.246;-6.670;2022-12-18T13:59:15;4.00;;;1.00;;
55915;SDS011;41826;53.246;-6.670;2022-12-18T14:01:43;1.70;;;0.90;;
55915;SDS011;41826;53.246;-6.670;2022-12-18T14:04:12;1.77;;;0.90;;
55915;SDS011;41826;53.246;-6.670;2022-12-18T14:06:44;2.40;;;1.33;;
55915;SDS011;41826;53.246;-6.670;2022-12-18T14:09:15;0.90;;;0.77;;
55915;SDS011;41826;53.246;-6.670;2022-12-18T14:11:50;1.35;;;1.25;;
55915;SDS011;41826;53.246;-6.670;2022-12-18T14:14:17;1.05;;;1.00;;
55915;SDS011;41826;53.246;-6.670;2022-12-18T14:16:45;4.20;;;3.28;;
55915;SDS011;41826;53.246;-6.670;2022-12-18T14:19:15;2.85;;;1.90;;
55915;SDS011;41826;53.246;-6.670;2022-12-18T14:21:46;3.17;;;2.60;;
55915;SDS011;41826;53.246;-6.670;2022-12-18T14:24:17;12.95;;;9.93;;
55915;SDS011;41826;53.246;-6.670;2022-12-18T14:26:44;7.45;;;5.82;;
55915;SDS011;41826;53.246;-6.670;2022-12-18T14:29:27;5.18;;;3.25;;
55915;SDS011;41826;53.246;-6.670;2022-12-18T14:34:37;12.13;;;7.82;;
55915;SDS011;41826;53.246;-6.670;2022-12-18T14:37:03;3.92;;;2.72;;
55915;SDS011;41826;53.246;-6.670;2022-12-18T14:39:29;9.48;;;5.53;;
55915;SDS011;41826;53.246;-6.670;2022-12-18T14:41:54;8.70;;;6.13;;
55915;SDS011;41826;53.246;-6.670;2022-12-18T14:44:19;8.23;;;5.78;;
55915;SDS011;41826;53.246;-6.670;2022-12-18T14:46:46;6.75;;;3.08;;
55915;SDS011;41826;53.246;-6.670;2022-12-18T14:49:23;7.63;;;5.47;;
55915;SDS011;41826;53.246;-6.670;2022-12-18T14:51:53;6.63;;;4.63;;
55915;SDS011;41826;53.246;-6.670;2022-12-18T14:54:22;6.82;;;5.35;;
55915;SDS011;41826;53.246;-6.670;2022-12-18T14:57:05;4.65;;;3.83;;
55915;SDS011;41826;53.246;-6.670;2022-12-18T14:59:41;9.02;;;8.13;;
55915;SDS011;41826;53.246;-6.670;2022-12-18T15:10:35;22.90;;;12.07;;
55915;SDS011;41826;53.246;-6.670;2022-12-18T15:13:20;4.00;;;3.58;;
55915;SDS011;41826;53.246;-6.670;2022-12-18T15:15:47;4.43;;;3.22;;
55915;SDS011;41826;53.246;-6.670;2022-12-18T15:18:15;2.92;;;2.30;;
55915;SDS011;41826;53.246;-6.670;2022-12-18T15:20:54;2.47;;;2.13;;
55915;SDS011;41826;53.246;-6.670;2022-12-18T15:25:54;2.40;;;1.90;;
55915;SDS011;41826;53.246;-6.670;2022-12-18T15:30:57;2.20;;;1.88;;
55915;SDS011;41826;53.246;-6.670;2022-12-18T15:33:25;5.65;;;3.28;;
55915;SDS011;41826;53.246;-6.670;2022-12-18T15:35:58;6.68;;;3.75;;
55915;SDS011;41826;53.246;-6.670;2022-12-18T15:38:27;4.35;;;2.75;;
55915;SDS011;41826;53.246;-6.670;2022-12-18T15:40:54;3.25;;;2.53;;
55915;SDS011;41826;53.246;-6.670;2022-12-18T15:43:21;6.18;;;3.83;;
55915;SDS011;41826;53.246;-6.670;2022-12-18T15:46:14;4.53;;;3.28;;
55915;SDS011;41826;53.246;-6.670;2022-12-18T15:48:42;10.05;;;5.88;;
55915;SDS011;41826;53.246;-6.670;2022-12-18T15:51:24;3.90;;;3.30;;
55915;SDS011;41826;53.246;-6.670;2022-12-18T15:53:55;4.22;;;3.50;;
55915;SDS011;41826;53.246;-6.670;2022-12-18T15:56:23;8.23;;;6.22;;
55915;SDS011;41826;53.246;-6.670;2022-12-18T15:59:12;3.70;;;2.85;;
55915;SDS011;41826;53.246;-6.670;2022-12-18T16:01:39;4.45;;;3.30;;
55915;SDS011;41826;53.246;-6.670;2022-12-18T16:04:06;5.70;;;3.63;;
55915;SDS011;41826;53.246;-6.670;2022-12-18T16:06:34;5.38;;;3.15;;
55915;SDS011;41826;53.246;-6.670;2022-12-18T16:08:59;5.65;;;3.15;;
55915;SDS011;41826;53.246;-6.670;2022-12-18T16:11:26;3.10;;;2.45;;
55915;SDS011;41826;53.246;-6.670;2022-12-18T16:16:48;3.90;;;2.90;;
55915;SDS011;41826;53.246;-6.670;2022-12-18T16:19:17;3.40;;;3.10;;
55915;SDS011;41826;53.246;-6.670;2022-12-18T16:21:45;2.50;;;1.90;;
55915;SDS011;41826;53.246;-6.670;2022-12-18T16:24:19;4.63;;;2.22;;
55915;SDS011;41826;53.246;-6.670;2022-12-18T16:26:49;2.63;;;2.05;;
55915;SDS011;41826;53.246;-6.670;2022-12-18T16:29:20;2.67;;;2.15;;
55915;SDS011;41826;53.246;-6.670;2022-12-18T16:31:51;3.22;;;2.05;;
55915;SDS011;41826;53.246;-6.670;2022-12-18T16:34:27;1.98;;;1.50;;
55915;SDS011;41826;53.246;-6.670;2022-12-18T16:36:59;16.92;;;14.73;;
55915;SDS011;41826;53.246;-6.670;2022-12-18T16:39:26;6.20;;;3.40;;
55915;SDS011;41826;53.246;-6.670;2022-12-18T16:41:52;3.05;;;2.78;;
55915;SDS011;41826;53.246;-6.670;2022-12-18T16:44:19;3.40;;;2.40;;
55915;SDS011;41826;53.246;-6.670;2022-12-18T16:46:45;2.47;;;2.28;;
55915;SDS011;41826;53.246;-6.670;2022-12-18T16:49:15;2.45;;;2.25;;
55915;SDS011;41826;53.246;-6.670;2022-12-18T16:51:41;2.95;;;2.35;;
55915;SDS011;41826;53.246;-6.670;2022-12-18T16:54:08;18.73;;;13.73;;
55915;SDS011;41826;53.246;-6.670;2022-12-18T16:56:33;20.20;;;16.75;;
55915;SDS011;41826;53.246;-6.670;2022-12-18T16:59:04;5.20;;;4.80;;
55915;SDS011;41826;53.246;-6.670;2022-12-18T17:01:31;5.32;;;4.85;;
55915;SDS011;41826;53.246;-6.670;2022-12-18T17:03:58;27.75;;;14.15;;
55915;SDS011;41826;53.246;-6.670;2022-12-18T17:06:27;47.40;;;24.40;;
55915;SDS011;41826;53.246;-6.670;2022-12-18T17:09:00;7.45;;;4.60;;
55915;SDS011;41826;53.246;-6.670;2022-12-18T17:11:30;9.95;;;5.28;;
55915;SDS011;41826;53.246;-6.670;2022-12-18T17:14:07;7.47;;;5.40;;
55915;SDS011;41826;53.246;-6.670;2022-12-18T17:16:38;6.88;;;4.32;;
55915;SDS011;41826;53.246;-6.670;2022-12-18T17:19:04;23.95;;;11.75;;
55915;SDS011;41826;53.246;-6.670;2022-12-18T17:21:30;25.48;;;11.07;;